Time;durP1;ratioP1;P1;durP2;ratioP2;P2;SDS_P1;SDS_P2;PMS_P1;PMS_P2;Temp;Humidity;BMP_temperature;BMP_pressure;BME280_temperature;BME280_humidity;BME280_pressure;Samples;Min_cycle;Max_cycle;Signal;HPM_P1;HPM_P2
2022/09/29 00:00:37;;;;;;;0.30;0.30;;;;;;;9.32;100.00;98211.97;7394453;19;20014;-88
2022/09/29 00:03:04;;;;;;;0.17;0.17;;;;;;;9.31;100.00;98212.50;7394315;19;20532;-88
2022/09/29 00:05:30;;;;;;;0.20;0.20;;;;;;;9.31;100.00;98210.47;7398004;19;20019;-87
2022/09/29 00:07:57;;;;;;;0.20;0.20;;;;;;;9.32;100.00;98214.75;7395547;19;20501;-87
2022/09/29 00:10:23;;;;;;;2.05;0.15;;;;;;;9.32;100.00;98208.44;7392858;19;20123;-88
2022/09/29 00:12:50;;;;;;;0.30;0.20;;;;;;;9.36;100.00;98208.94;7393955;19;20018;-87
2022/09/29 00:15:17;;;;;;;0.10;0.10;;;;;;;11.68;100.00;98195.72;7394294;19;20014;-87
2022/09/29 00:17:43;;;;;;;0.20;0.10;;;;;;;14.76;100.00;98173.50;7392351;19;20458;-87
2022/09/29 00:20:09;;;;;;;0.60;0.47;;;;;;;15.59;100.00;98163.78;7394465;19;20029;-86
2022/09/29 00:22:35;;;;;;;2.63;0.30;;;;;;;16.28;100.00;98174.13;7394208;19;20007;-87
2022/09/29 00:25:01;;;;;;;0.75;0.40;;;;;;;14.83;100.00;98173.59;7395180;19;20326;-86
2022/09/29 00:27:28;;;;;;;0.20;0.13;;;;;;;10.68;100.00;98180.63;7392674;19;20033;-86
2022/09/29 00:29:54;;;;;;;0.30;0.22;;;;;;;10.05;100.00;98204.22;7395606;19;20021;-85
2022/09/29 00:32:20;;;;;;;0.22;0.13;;;;;;;9.80;100.00;98200.50;7391171;19;20011;-85
2022/09/29 00:34:46;;;;;;;0.30;0.30;;;;;;;9.79;100.00;98201.75;7393859;19;20025;-86
2022/09/29 00:37:13;;;;;;;0.20;0.20;;;;;;;9.72;100.00;98207.88;7391080;19;20032;-84
2022/09/29 00:39:39;;;;;;;0.20;0.15;;;;;;;9.65;100.00;98211.16;7392028;19;20014;-87
2022/09/29 00:42:05;;;;;;;0.35;0.35;;;;;;;9.65;100.00;98209.16;7392183;19;20030;-86
2022/09/29 00:44:53;;;;;;;0.65;0.30;;;;;;;9.69;100.00;98206.88;7394246;19;20082;-86
2022/09/29 00:47:20;;;;;;;0.38;0.17;;;;;;;9.72;100.00;98203.03;7392530;19;20010;-86
2022/09/29 00:49:51;;;;;;;0.10;0.10;;;;;;;9.67;100.00;98205.84;7392158;19;20073;-86
2022/09/29 00:52:29;;;;;;;0.13;0.13;;;;;;;9.59;100.00;98204.88;7391881;19;20022;-86
2022/09/29 00:55:00;;;;;;;0.57;0.57;;;;;;;9.49;100.00;98217.50;7394280;19;20014;-86
2022/09/29 00:57:36;;;;;;;1.05;0.30;;;;;;;9.60;100.00;98217.47;7399521;19;20800;-86
2022/09/29 01:00:11;;;;;;;0.63;0.63;;;;;;;9.65;100.00;98217.50;7401160;19;20030;-85
2022/09/29 01:02:45;;;;;;;0.20;0.20;;;;;;;9.60;100.00;98218.25;7397083;19;20026;-86
2022/09/29 01:05:17;;;;;;;0.68;0.55;;;;;;;9.60;100.00;98217.47;7402374;19;20018;-87
2022/09/29 01:07:45;;;;;;;0.20;0.15;;;;;;;9.59;100.00;98213.97;7401220;19;20038;-86
2022/09/29 01:10:15;;;;;;;0.10;0.10;;;;;;;9.58;100.00;98214.47;7397868;19;20025;-86
2022/09/29 01:12:45;;;;;;;0.45;0.45;;;;;;;9.58;100.00;98218.00;7396125;19;20015;-87
2022/09/29 01:15:13;;;;;;;1.17;0.50;;;;;;;9.56;100.00;98222.56;7401888;19;20011;-86
2022/09/29 01:17:40;;;;;;;0.25;0.25;;;;;;;9.59;100.00;98227.09;7399429;19;20014;-86
2022/09/29 01:20:14;;;;;;;0.50;0.50;;;;;;;9.65;100.00;98227.84;7404902;19;20039;-87
2022/09/29 01:22:49;;;;;;;0.65;0.38;;;;;;;9.96;100.00;98226.75;7400450;19;20082;-87
2022/09/29 01:25:48;;;;;;;0.10;0.10;;;;;;;9.94;100.00;98216.88;7402759;19;20010;-86
2022/09/29 01:28:45;;;;;;;0.13;0.13;;;;;;;9.73;100.00;98212.16;7400701;19;20010;-87
2022/09/29 01:31:30;;;;;;;0.20;0.20;;;;;;;9.85;100.00;98213.66;7397886;19;20053;-87
2022/09/29 01:34:24;;;;;;;1.25;0.43;;;;;;;9.87;100.00;98211.09;7397530;19;20013;-87
2022/09/29 01:36:50;;;;;;;0.20;0.20;;;;;;;10.28;100.00;98223.13;7400448;19;20007;-86
2022/09/29 01:39:33;;;;;;;0.40;0.32;;;;;;;10.76;100.00;98210.69;7401942;19;20010;-87
2022/09/29 01:42:03;;;;;;;0.30;0.20;;;;;;;10.66;100.00;98207.44;7400800;19;20010;-87
2022/09/29 01:44:29;;;;;;;0.40;0.38;;;;;;;10.56;100.00;98204.25;7401109;19;20074;-86
2022/09/29 01:47:06;;;;;;;0.25;0.20;;;;;;;10.73;100.00;98201.34;7403019;19;20011;-88
2022/09/29 01:49:39;;;;;;;1.13;0.52;;;;;;;11.39;100.00;98202.84;7399016;19;20346;-86
2022/09/29 01:52:10;;;;;;;0.30;0.30;;;;;;;10.95;100.00;98189.28;7394398;19;20544;-86
2022/09/29 01:54:39;;;;;;;;;;;;;;;11.29;100.00;98204.44;7395590;19;20025;-87
2022/09/29 01:57:11;;;;;;;0.45;0.45;;;;;;;11.39;100.00;98200.78;7392245;19;19954;-88
2022/09/29 01:59:46;;;;;;;0.45;0.32;;;;;;;11.63;100.00;98202.09;7400336;19;20006;-87
2022/09/29 02:02:18;;;;;;;0.73;0.57;;;;;;;11.52;100.00;98205.72;7396703;19;20032;-87
2022/09/29 02:04:51;;;;;;;0.50;0.50;;;;;;;12.03;100.00;98207.50;7400587;19;20019;-88
2022/09/29 02:07:27;;;;;;;0.20;0.20;;;;;;;12.46;100.00;98209.47;7398739;19;20014;-88
2022/09/29 02:10:01;;;;;;;0.30;0.30;;;;;;;13.44;100.00;98205.72;7397671;19;20017;-87
2022/09/29 02:12:32;;;;;;;1.38;0.60;;;;;;;13.73;100.00;98203.91;7396819;19;20034;-87
2022/09/29 02:15:01;;;;;;;3.30;1.48;;;;;;;11.57;100.00;98215.31;7399986;19;20022;-88
2022/09/29 02:17:37;;;;;;;0.73;0.52;;;;;;;10.05;100.00;98227.22;7398502;19;20028;-87
2022/09/29 02:20:04;;;;;;;1.15;0.50;;;;;;;9.81;100.00;98235.41;7396470;19;20010;-87
2022/09/29 02:22:31;;;;;;;0.50;0.50;;;;;;;9.66;100.00;98237.69;7395356;19;20017;-86
2022/09/29 02:24:58;;;;;;;0.50;0.40;;;;;;;9.63;100.00;98247.81;7401530;19;20078;-87
2022/09/29 02:27:32;;;;;;;0.80;0.60;;;;;;;9.63;100.00;98247.81;7397650;19;20026;-88
2022/09/29 02:29:58;;;;;;;0.82;0.82;;;;;;;9.59;100.00;98236.22;7398232;19;20026;-88
2022/09/29 02:32:25;;;;;;;1.77;0.60;;;;;;;9.65;100.00;98244.53;7396370;19;20485;-88
2022/09/29 02:34:53;;;;;;;0.30;0.30;;;;;;;9.70;100.00;98246.53;7400302;19;20011;-88
2022/09/29 02:37:31;;;;;;;0.50;0.45;;;;;;;9.69;100.00;98247.78;7396493;19;20448;-88
2022/09/29 02:39:57;;;;;;;0.43;0.43;;;;;;;9.71;100.00;98253.59;7397339;19;20043;-87
2022/09/29 02:42:45;;;;;;;3.33;0.52;;;;;;;9.74;100.00;98252.59;7394983;19;20536;-87
2022/09/29 02:45:36;;;;;;;2.05;0.57;;;;;;;9.72;100.00;98249.56;7400478;19;20007;-87
2022/09/29 02:48:02;;;;;;;0.50;0.50;;;;;;;9.74;100.00;98249.81;7397948;19;20038;-87
2022/09/29 02:50:31;;;;;;;5.45;0.82;;;;;;;9.73;100.00;98256.63;7396546;19;20484;-87
2022/09/29 02:53:12;;;;;;;0.93;0.60;;;;;;;9.81;100.00;98263.19;7394437;19;20025;-88
2022/09/29 02:55:59;;;;;;;1.40;1.30;;;;;;;9.87;100.00;98261.88;7396441;19;20472;-87
2022/09/29 02:58:33;;;;;;;0.40;0.40;;;;;;;9.88;100.00;98257.84;7395541;19;20018;-87
2022/09/29 03:01:00;;;;;;;1.80;0.90;;;;;;;9.95;100.00;98262.13;7396871;19;20464;-88
2022/09/29 03:03:26;;;;;;;0.73;0.50;;;;;;;9.98;100.00;98261.13;7396519;19;20023;-88
2022/09/29 03:05:52;;;;;;;1.88;0.47;;;;;;;10.03;100.00;98262.38;7401167;19;20390;-88
2022/09/29 03:08:18;;;;;;;0.68;0.68;;;;;;;10.04;100.00;98261.88;7397150;19;20015;-89
2022/09/29 03:10:44;;;;;;;0.28;0.28;;;;;;;12.76;100.00;98254.75;7396630;19;20338;-88
2022/09/29 03:13:10;;;;;;;0.95;0.65;;;;;;;13.90;100.00;98223.94;7396837;19;20010;-87
2022/09/29 03:15:36;;;;;;;2.53;0.70;;;;;;;14.63;100.00;98227.56;7397498;19;20461;-88
2022/09/29 03:18:03;;;;;;;3.47;1.10;;;;;;;14.91;100.00;98229.72;7392971;19;20014;-88
2022/09/29 03:20:29;;;;;;;0.40;0.20;;;;;;;14.95;100.00;98228.09;7394374;19;20091;-88
2022/09/29 03:22:56;;;;;;;0.40;0.40;;;;;;;15.35;100.00;98244.75;7397735;19;20011;-88
2022/09/29 03:25:23;;;;;;;0.68;0.68;;;;;;;15.51;100.00;98237.97;7398885;19;20022;-88
2022/09/29 03:27:50;;;;;;;0.73;0.35;;;;;;;15.31;100.00;98244.34;7396742;19;20030;-88
2022/09/29 03:30:17;;;;;;;0.50;0.50;;;;;;;15.41;100.00;98234.13;7395001;19;20082;-88
2022/09/29 03:32:43;;;;;;;1.10;0.47;;;;;;;15.67;100.00;98236.81;7394423;19;20021;-88
2022/09/29 03:35:10;;;;;;;0.98;0.85;;;;;;;15.50;100.00;98234.44;7398471;19;20074;-88
2022/09/29 03:37:36;;;;;;;0.55;0.30;;;;;;;15.52;100.00;98237.47;7396273;19;20442;-88
2022/09/29 03:40:04;;;;;;;1.98;0.47;;;;;;;15.94;100.00;98249.34;7397304;19;20081;-88
2022/09/29 03:42:31;;;;;;;0.65;0.40;;;;;;;15.98;100.00;98249.03;7394726;19;20079;-87
2022/09/29 03:44:57;;;;;;;0.68;0.55;;;;;;;15.70;100.00;98258.91;7396875;19;20003;-88
2022/09/29 03:47:23;;;;;;;1.20;0.88;;;;;;;11.62;100.00;98268.25;7395606;19;20413;-88
2022/09/29 03:49:49;;;;;;;1.55;0.63;;;;;;;11.01;100.00;98270.75;7395617;19;20372;-88
2022/09/29 03:52:16;;;;;;;2.13;0.50;;;;;;;10.70;100.00;98279.56;7393668;19;20018;-88
2022/09/29 03:54:42;;;;;;;0.20;0.20;;;;;;;10.60;100.00;98282.66;7395053;19;20017;-88
2022/09/29 03:57:08;;;;;;;0.47;0.13;;;;;;;10.47;100.00;98285.25;7395014;19;20026;-88
2022/09/29 03:59:34;;;;;;;0.22;0.20;;;;;;;10.41;100.00;98292.88;7396716;19;20015;-88
2022/09/29 04:02:00;;;;;;;0.65;0.60;;;;;;;10.29;100.00;98291.38;7396172;19;20469;-88
2022/09/29 04:04:26;;;;;;;0.35;0.32;;;;;;;10.15;100.00;98295.25;7397136;19;20082;-89
2022/09/29 04:06:52;;;;;;;0.45;0.35;;;;;;;10.14;100.00;98296.50;7396393;19;20330;-88
2022/09/29 04:09:18;;;;;;;0.40;0.40;;;;;;;10.24;100.00;98297.75;7394709;19;20010;-89
2022/09/29 04:11:45;;;;;;;0.73;0.20;;;;;;;10.21;100.00;98301.53;7395858;19;20362;-89
2022/09/29 04:14:11;;;;;;;1.15;0.40;;;;;;;10.22;100.00;98300.25;7393157;19;20010;-88
2022/09/29 04:16:37;;;;;;;0.32;0.30;;;;;;;12.85;100.00;98285.13;7400671;19;20022;-88
2022/09/29 04:19:03;;;;;;;0.15;0.15;;;;;;;14.24;100.00;98278.00;7394364;19;20011;-89
2022/09/29 04:21:29;;;;;;;0.15;0.15;;;;;;;14.99;100.00;98281.00;7394688;19;20015;-88
2022/09/29 04:23:55;;;;;;;3.58;0.77;;;;;;;15.27;100.00;98283.19;7395021;19;20078;-90
2022/09/29 04:26:21;;;;;;;0.63;0.60;;;;;;;14.59;100.00;98288.78;7400673;19;20011;-89
2022/09/29 04:28:48;;;;;;;0.52;0.30;;;;;;;15.28;100.00;98293.88;7396476;19;20019;-89
2022/09/29 04:31:14;;;;;;;0.38;0.30;;;;;;;15.25;100.00;98294.19;7397376;19;20022;-89
2022/09/29 04:33:40;;;;;;;0.32;0.32;;;;;;;15.50;100.00;98301.78;7398295;19;20006;-89
2022/09/29 04:36:07;;;;;;;0.95;0.50;;;;;;;15.60;100.00;98304.84;7404159;19;20007;-88
2022/09/29 04:38:33;;;;;;;0.30;0.25;;;;;;;15.58;100.00;98301.84;7398994;19;20018;-89
2022/09/29 04:40:59;;;;;;;1.20;0.30;;;;;;;15.80;100.00;98306.91;7400862;19;20015;-89
2022/09/29 04:43:25;;;;;;;1.00;0.60;;;;;;;16.01;100.00;98313.25;7402065;19;20010;-89
2022/09/29 04:45:51;;;;;;;0.52;0.25;;;;;;;12.02;100.00;98320.38;7405515;19;20006;-89
2022/09/29 04:48:17;;;;;;;0.55;0.55;;;;;;;11.03;100.00;98330.25;7402083;19;20014;-89
2022/09/29 04:50:44;;;;;;;0.40;0.25;;;;;;;10.64;100.00;98327.69;7397487;19;20763;-89
2022/09/29 04:53:10;;;;;;;0.17;0.10;;;;;;;10.46;100.00;98328.25;7400099;19;20029;-89
2022/09/29 04:55:37;;;;;;;0.20;0.20;;;;;;;10.42;100.00;98343.69;7400536;19;20042;-89
2022/09/29 04:58:04;;;;;;;0.63;0.13;;;;;;;10.36;100.00;98338.16;7400211;19;20476;-89
2022/09/29 05:00:31;;;;;;;0.10;0.10;;;;;;;10.20;100.00;98350.09;7398311;19;20007;-89
2022/09/29 05:02:58;;;;;;;0.20;0.20;;;;;;;10.17;100.00;98340.00;7399905;19;20019;-89
2022/09/29 05:05:24;;;;;;;0.30;0.10;;;;;;;10.09;100.00;98350.06;7399012;19;20488;-89
2022/09/29 05:07:51;;;;;;;0.10;0.10;;;;;;;10.03;100.00;98348.59;7393635;19;20018;-89
2022/09/29 05:10:17;;;;;;;0.20;0.20;;;;;;;10.04;100.00;98342.53;7399685;19;20011;-89
2022/09/29 05:12:52;;;;;;;0.25;0.25;;;;;;;10.01;100.00;98354.66;7400213;19;20359;-89
2022/09/29 05:15:18;;;;;;;0.40;0.40;;;;;;;9.88;100.00;98354.41;7402515;19;20013;-88
2022/09/29 05:17:45;;;;;;;0.55;0.20;;;;;;;9.92;100.00;98368.81;7402891;19;20019;-89
2022/09/29 05:20:12;;;;;;;0.90;0.43;;;;;;;9.86;100.00;98373.63;7401057;19;20045;-88
2022/09/29 05:22:38;;;;;;;0.20;0.20;;;;;;;9.81;100.00;98374.41;7398975;19;20026;-87
2022/09/29 05:25:05;;;;;;;0.35;0.35;;;;;;;9.85;100.00;98380.47;7403422;19;20052;-88
2022/09/29 05:27:31;;;;;;;0.25;0.17;;;;;;;12.70;100.00;98374.19;7399503;19;20027;-89
2022/09/29 05:29:57;;;;;;;0.30;0.30;;;;;;;14.24;100.00;98348.00;7401633;19;20023;-88
2022/09/29 05:32:23;;;;;;;0.20;0.20;;;;;;;14.69;100.00;98342.31;7400144;19;20017;-88
2022/09/29 05:34:49;;;;;;;0.65;0.38;;;;;;;14.88;100.00;98354.91;7401929;19;20006;-88
2022/09/29 05:37:17;;;;;;;0.30;0.30;;;;;;;14.97;100.00;98362.84;7401254;19;20077;-89
2022/09/29 05:39:43;;;;;;;0.35;0.35;;;;;;;15.10;100.00;98359.28;7401149;19;20350;-89
2022/09/29 05:42:10;;;;;;;0.20;0.20;;;;;;;15.19;100.00;98356.78;7396342;19;20017;-88
2022/09/29 05:44:36;;;;;;;0.30;0.30;;;;;;;15.39;100.00;98369.34;7400058;19;20014;-84
2022/09/29 05:47:03;;;;;;;0.95;0.52;;;;;;;15.66;100.00;98372.81;7402159;19;20018;-87
2022/09/29 05:49:30;;;;;;;0.20;0.20;;;;;;;15.70;100.00;98371.19;7399874;19;20082;-88
2022/09/29 05:51:57;;;;;;;0.20;0.13;;;;;;;15.80;100.00;98368.66;7398171;19;20018;-87
2022/09/29 05:54:23;;;;;;;0.10;0.10;;;;;;;16.12;100.00;98385.97;7400690;19;20327;-88
2022/09/29 05:56:50;;;;;;;0.10;0.10;;;;;;;15.81;100.00;98381.38;7399271;19;20043;-87
2022/09/29 05:59:16;;;;;;;0.13;0.13;;;;;;;16.03;100.00;98380.84;7398481;19;20028;-88
2022/09/29 06:01:42;;;;;;;0.10;0.10;;;;;;;16.01;100.00;98397.50;7397920;19;20048;-88
2022/09/29 06:04:08;;;;;;;0.10;0.10;;;;;;;15.81;100.00;98395.41;7397695;19;20046;-88
2022/09/29 06:06:35;;;;;;;0.40;0.32;;;;;;;16.20;100.00;98409.25;7404428;19;20073;-88
2022/09/29 06:09:01;;;;;;;0.20;0.20;;;;;;;16.18;100.00;98408.28;7399814;19;20010;-88
2022/09/29 06:11:33;;;;;;;0.10;0.10;;;;;;;16.29;100.00;98413.63;7397980;19;20366;-88
2022/09/29 06:14:00;;;;;;;;;;;;;;;16.13;100.00;98412.78;7399268;19;20022;-87
2022/09/29 06:16:28;;;;;;;0.20;0.20;;;;;;;16.02;100.00;98413.06;7403346;19;19919;-88
2022/09/29 06:18:55;;;;;;;0.20;0.20;;;;;;;15.63;100.00;98410.41;7397933;19;20015;-88
2022/09/29 06:21:23;;;;;;;0.10;0.10;;;;;;;15.93;100.00;98419.91;7397174;19;20671;-89
2022/09/29 06:23:50;;;;;;;0.17;0.17;;;;;;;16.18;100.00;98420.28;7396958;19;20015;-89
2022/09/29 06:26:18;;;;;;;0.10;0.10;;;;;;;16.26;100.00;98432.38;7403782;19;20526;-88
2022/09/29 06:28:44;;;;;;;0.55;0.10;;;;;;;16.19;100.00;98430.25;7399518;19;20522;-88
2022/09/29 06:31:14;;;;;;;0.22;0.20;;;;;;;16.36;100.00;98430.56;7395087;19;20019;-88
2022/09/29 06:33:40;;;;;;;0.10;0.10;;;;;;;15.81;100.00;98438.28;7397638;19;20014;-88
2022/09/29 06:39:07;;;;;;;0.10;0.10;;;;;;;16.79;100.00;98448.88;7397776;19;20007;-88
2022/09/29 06:41:34;;;;;;;0.10;0.10;;;;;;;16.88;100.00;98451.19;7396746;19;20022;-88
2022/09/29 06:44:01;;;;;;;0.20;0.20;;;;;;;16.83;100.00;98446.50;7396957;19;20021;-87
2022/09/29 06:46:27;;;;;;;0.30;0.30;;;;;;;16.70;100.00;98446.59;7401733;19;20032;-89
2022/09/29 06:48:54;;;;;;;1.13;0.28;;;;;;;16.26;100.00;98460.47;7399371;19;20022;-88
2022/09/29 06:51:22;;;;;;;0.10;0.10;;;;;;;16.15;100.00;98459.97;7395913;19;20022;-88
2022/09/29 06:53:49;;;;;;;1.00;0.65;;;;;;;15.97;100.00;98464.47;7394725;19;20352;-88
2022/09/29 06:56:16;;;;;;;0.40;0.40;;;;;;;16.34;100.00;98466.13;7398454;19;20499;-88
2022/09/29 06:58:44;;;;;;;0.85;0.40;;;;;;;16.91;100.00;98472.59;7394878;19;20015;-88
2022/09/29 07:01:11;;;;;;;0.15;0.15;;;;;;;16.75;100.00;98468.94;7396294;19;20014;-86
2022/09/29 07:03:38;;;;;;;1.55;0.82;;;;;;;16.90;100.00;98471.09;7394430;19;20017;-89
2022/09/29 07:06:05;;;;;;;0.10;0.10;;;;;;;16.19;100.00;98478.00;7399516;19;20017;-88
2022/09/29 07:08:34;;;;;;;3.13;0.52;;;;;;;16.64;100.00;98484.03;7395868;19;20038;-90
2022/09/29 07:11:01;;;;;;;0.50;0.40;;;;;;;17.13;100.00;98486.78;7394797;19;20031;-88
2022/09/29 07:13:28;;;;;;;2.95;1.38;;;;;;;17.31;100.00;98496.28;7395170;19;20014;-88
2022/09/29 07:15:54;;;;;;;0.22;0.20;;;;;;;17.35;100.00;98499.47;7398281;19;20022;-89
2022/09/29 07:18:21;;;;;;;0.20;0.10;;;;;;;17.13;100.00;98505.75;7394542;19;20110;-88
2022/09/29 07:20:47;;;;;;;1.27;0.38;;;;;;;17.56;100.00;98514.28;7393378;19;20490;-88
2022/09/29 07:23:13;;;;;;;0.30;0.30;;;;;;;17.68;100.00;98514.69;7394395;19;20017;-88
2022/09/29 07:25:39;;;;;;;0.85;0.10;;;;;;;13.04;100.00;98514.28;7399109;19;20453;-88
2022/09/29 07:28:05;;;;;;;1.35;0.38;;;;;;;15.27;100.00;98516.00;7396847;19;20092;-88
2022/09/29 07:30:31;;;;;;;0.38;0.30;;;;;;;16.67;100.00;98515.91;7395471;19;20023;-89
2022/09/29 07:32:57;;;;;;;0.40;0.40;;;;;;;16.99;100.00;98524.03;7396548;19;20017;-88
2022/09/29 07:35:23;;;;;;;4.78;0.32;;;;;;;17.25;100.00;98540.72;7397823;19;20013;-88
2022/09/29 07:37:51;;;;;;;0.25;0.17;;;;;;;17.36;100.00;98534.78;7396934;19;20015;-88
2022/09/29 07:40:21;;;;;;;0.98;0.68;;;;;;;17.49;100.00;98526.22;7394939;19;20054;-90
2022/09/29 07:42:48;;;;;;;0.33;0.33;;;;;;;17.44;100.00;98546.81;7394483;19;20026;-91
2022/09/29 07:45:15;;;;;;;0.93;0.30;;;;;;;17.50;100.00;98539.00;7396624;19;20029;-89
2022/09/29 07:47:42;;;;;;;0.75;0.15;;;;;;;17.58;100.00;98547.50;7397287;19;20465;-91
2022/09/29 07:50:08;;;;;;;0.93;0.20;;;;;;;17.64;100.00;98548.84;7396242;19;20019;-90
2022/09/29 07:52:34;;;;;;;0.47;0.17;;;;;;;17.86;100.00;98553.06;7394457;19;20018;-89
2022/09/29 07:55:01;;;;;;;0.40;0.32;;;;;;;17.24;100.00;98556.06;7396994;19;20330;-89
2022/09/29 07:57:27;;;;;;;0.60;0.32;;;;;;;17.29;100.00;98564.38;7395602;19;20483;-90
2022/09/29 07:59:56;;;;;;;0.17;0.17;;;;;;;17.35;100.00;98564.22;7396509;19;20453;-93
2022/09/29 08:02:24;;;;;;;0.52;0.47;;;;;;;17.37;100.00;98558.78;7400712;19;20022;-94
2022/09/29 08:04:51;;;;;;;2.47;0.88;;;;;;;17.75;100.00;98562.59;7407471;19;20018;-96
2022/09/29 08:07:17;;;;;;;0.73;0.25;;;;;;;17.20;100.00;98569.75;7405517;19;20022;-94
2022/09/29 08:09:43;;;;;;;0.20;0.20;;;;;;;17.39;100.00;98570.25;7404869;19;20011;-93
2022/09/29 08:12:11;;;;;;;4.68;0.38;;;;;;;17.69;100.00;98570.47;7401890;19;20007;-95
2022/09/29 08:14:38;;;;;;;0.88;0.40;;;;;;;17.71;100.00;98581.94;7396037;19;20066;-94
2022/09/29 08:17:04;;;;;;;0.10;0.10;;;;;;;17.15;100.00;98582.66;7396889;19;20011;-94
2022/09/29 08:19:30;;;;;;;0.10;0.10;;;;;;;17.57;100.00;98588.22;7398201;19;20014;-94
2022/09/29 08:21:56;;;;;;;0.43;0.10;;;;;;;17.60;100.00;98593.50;7398620;19;20050;-95
2022/09/29 08:24:24;;;;;;;0.63;0.30;;;;;;;17.18;100.00;98594.88;7400174;19;20058;-93
2022/09/29 08:26:50;;;;;;;1.40;0.52;;;;;;;17.21;100.00;98590.97;7395474;19;20478;-93
2022/09/29 08:29:16;;;;;;;0.63;0.63;;;;;;;17.44;100.00;98597.50;7396267;19;20014;-93
2022/09/29 08:31:42;;;;;;;0.22;0.22;;;;;;;13.68;100.00;98609.16;7397275;19;20026;-95
2022/09/29 08:34:08;;;;;;;0.10;0.10;;;;;;;12.77;100.00;98619.44;7397734;19;20021;-94
2022/09/29 08:36:35;;;;;;;0.10;0.10;;;;;;;12.54;100.00;98623.69;7400554;19;20113;-93
2022/09/29 08:39:02;;;;;;;0.30;0.10;;;;;;;12.60;100.00;98630.00;7402977;19;20034;-94
2022/09/29 08:41:47;;;;;;;0.13;0.13;;;;;;;12.77;100.00;98641.78;7397426;19;20014;-95
2022/09/29 08:44:26;;;;;;;0.30;0.10;;;;;;;12.93;100.00;98646.47;7404406;19;20021;-94
2022/09/29 08:46:57;;;;;;;0.30;0.10;;;;;;;12.90;100.00;98647.53;7404113;19;20014;-92
2022/09/29 08:49:47;;;;;;;0.30;0.22;;;;;;;12.91;100.00;98663.00;7400311;19;20014;-94
2022/09/29 08:52:18;;;;;;;0.10;0.10;;;;;;;12.93;100.00;98657.66;7400389;19;20017;-94
2022/09/29 08:54:48;;;;;;;0.28;0.20;;;;;;;16.75;100.00;98645.28;7399389;19;20007;-94
2022/09/29 08:57:20;;;;;;;0.10;0.10;;;;;;;15.08;100.00;98648.63;7399805;19;20015;-94
2022/09/29 08:59:52;;;;;;;1.98;0.30;;;;;;;13.23;100.00;98672.41;7398608;19;20015;-93
2022/09/29 09:02:43;;;;;;;0.10;0.10;;;;;;;12.69;100.00;98675.09;7403877;19;20010;-89
2022/09/29 09:05:27;;;;;;;12.20;0.50;;;;;;;12.58;100.00;98685.59;7404920;19;20035;-90
2022/09/29 09:08:15;;;;;;;0.93;0.15;;;;;;;12.59;100.00;98690.66;7406022;19;20486;-90
2022/09/29 09:10:58;;;;;;;0.10;0.03;;;;;;;16.36;100.00;98675.03;7399025;19;20046;-89
2022/09/29 09:14:06;;;;;;;1.08;0.22;;;;;;;17.66;100.00;98678.56;7395164;19;20030;-90
2022/09/29 09:16:57;;;;;;;7.63;0.75;;;;;;;17.88;100.00;98680.78;7401361;19;20010;-91
2022/09/29 09:19:40;;;;;;;0.22;0.10;;;;;;;18.50;100.00;98682.59;7398472;19;20474;-90
2022/09/29 09:22:12;;;;;;;0.63;0.30;;;;;;;18.92;100.00;98693.06;7400007;19;20015;-90
2022/09/29 09:25:05;;;;;;;0.35;0.35;;;;;;;19.01;100.00;98703.06;7402205;19;19999;-91
2022/09/29 09:27:40;;;;;;;0.10;0.00;;;;;;;19.04;100.00;98696.28;7401356;19;20006;-91
2022/09/29 09:30:14;;;;;;;0.10;0.10;;;;;;;18.97;100.00;98697.03;7399619;19;20053;-90
2022/09/29 09:32:48;;;;;;;0.10;0.10;;;;;;;18.96;100.00;98701.16;7400168;19;20031;-89
2022/09/29 09:35:23;;;;;;;0.20;0.10;;;;;;;19.02;100.00;98698.91;7402372;19;20014;-88
2022/09/29 09:37:52;;;;;;;0.57;0.40;;;;;;;19.46;100.00;98696.72;7399751;19;20090;-89
2022/09/29 09:40:51;;;;;;;0.10;0.10;;;;;;;19.31;100.00;98703.09;7400027;19;20025;-85
2022/09/29 09:43:47;;;;;;;2.80;0.40;;;;;;;19.55;100.00;98705.41;7397610;19;20011;-85
2022/09/29 09:46:29;;;;;;;7.03;0.47;;;;;;;19.46;100.00;98717.25;7401141;19;20022;-90
2022/09/29 09:49:10;;;;;;;0.73;0.35;;;;;;;19.25;100.00;98715.88;7399780;19;20022;-87
2022/09/29 09:51:36;;;;;;;0.10;0.10;;;;;;;19.33;100.00;98723.03;7399002;19;20019;-87
2022/09/29 09:54:08;;;;;;;0.10;0.10;;;;;;;19.83;100.00;98729.84;7399672;19;20026;-87
2022/09/29 09:57:05;;;;;;;0.20;0.20;;;;;;;19.94;100.00;98731.53;7404182;19;20013;-86
2022/09/29 09:59:38;;;;;;;0.10;0.00;;;;;;;20.03;100.00;98743.00;7399926;19;20025;-87
2022/09/29 10:02:04;;;;;;;0.30;0.20;;;;;;;19.85;100.00;98740.59;7396915;19;20090;-86
2022/09/29 10:04:32;;;;;;;1.65;0.55;;;;;;;20.06;100.00;98746.78;7398035;19;20058;-87
2022/09/29 10:06:58;;;;;;;3.03;0.55;;;;;;;20.25;100.00;98741.47;7396411;19;20022;-88
2022/09/29 10:09:25;;;;;;;0.20;0.10;;;;;;;20.24;100.00;98739.97;7399421;19;20022;-87
2022/09/29 10:11:51;;;;;;;0.32;0.15;;;;;;;20.03;100.00;98745.81;7396830;19;20398;-87
2022/09/29 10:14:24;;;;;;;2.08;0.25;;;;;;;18.64;100.00;98760.13;7396365;19;20044;-86
2022/09/29 10:16:55;;;;;;;0.10;0.10;;;;;;;18.48;100.00;98755.69;7402551;19;20018;-87
2022/09/29 10:19:23;;;;;;;0.40;0.30;;;;;;;18.66;100.00;98766.72;7398170;19;20022;-86
2022/09/29 10:21:49;;;;;;;0.10;0.10;;;;;;;19.09;100.00;98765.91;7394752;19;20085;-87
2022/09/29 10:24:22;;;;;;;0.30;0.15;;;;;;;18.81;100.00;98766.78;7398525;19;20011;-87
2022/09/29 10:26:52;;;;;;;0.10;0.00;;;;;;;19.33;100.00;98771.03;7397447;19;20357;-86
2022/09/29 10:29:37;;;;;;;0.10;0.08;;;;;;;19.18;100.00;98773.84;7391954;19;20014;-86
2022/09/29 10:32:35;;;;;;;0.75;0.32;;;;;;;19.43;100.00;98777.66;7393390;19;20014;-86
2022/09/29 10:35:14;;;;;;;0.10;0.10;;;;;;;19.91;100.00;98783.53;7398389;19;20011;-86
2022/09/29 10:37:45;;;;;;;0.20;0.10;;;;;;;19.87;100.00;98777.50;7399085;19;20014;-86
2022/09/29 10:40:19;;;;;;;0.10;0.10;;;;;;;20.31;100.00;98778.81;7402090;19;20025;-87
2022/09/29 10:42:49;;;;;;;0.10;0.10;;;;;;;20.32;100.00;98791.63;7393729;19;20046;-85
2022/09/29 10:45:22;;;;;;;0.32;0.20;;;;;;;20.27;100.00;98787.66;7395281;19;20031;-84
2022/09/29 10:47:57;;;;;;;0.57;0.20;;;;;;;20.15;100.00;98795.00;7395911;19;20022;-85
2022/09/29 10:50:26;;;;;;;1.40;0.30;;;;;;;19.96;100.00;98803.13;7393271;19;20108;-84
2022/09/29 10:52:54;;;;;;;0.10;0.10;;;;;;;20.20;100.00;98796.13;7392067;19;20033;-84
2022/09/29 10:55:24;;;;;;;0.10;0.10;;;;;;;20.08;100.00;98806.31;7396821;19;20018;-87
2022/09/29 10:57:56;;;;;;;0.08;0.00;;;;;;;18.77;100.00;98808.69;7391198;19;20015;-86
2022/09/29 11:00:38;;;;;;;0.20;0.20;;;;;;;19.77;100.00;98804.81;7394361;19;20025;-86
2022/09/29 11:03:25;;;;;;;0.57;0.25;;;;;;;19.42;100.00;98798.78;7389609;19;20018;-84
2022/09/29 11:05:58;;;;;;;0.10;0.10;;;;;;;19.48;100.00;98802.16;7402356;19;20021;-92
2022/09/29 11:08:26;;;;;;;1.08;0.20;;;;;;;20.47;100.00;98808.53;7397247;19;20034;-90
2022/09/29 11:11:14;;;;;;;0.10;0.10;;;;;;;20.93;100.00;98804.25;7395864;19;20385;-91
2022/09/29 11:13:41;;;;;;;0.10;0.10;;;;;;;21.28;100.00;98805.25;7395014;19;20462;-93
2022/09/29 11:16:14;;;;;;;0.10;0.10;;;;;;;21.65;100.00;98804.25;7398637;19;20039;-93
2022/09/29 11:18:43;;;;;;;0.20;0.10;;;;;;;21.85;100.00;98805.28;7395016;19;20018;-95
2022/09/29 11:21:18;;;;;;;0.10;0.10;;;;;;;21.99;100.00;98812.13;7395592;19;20011;-92
2022/09/29 11:24:16;;;;;;;0.30;0.10;;;;;;;22.01;100.00;98806.63;7397684;19;20468;-94
2022/09/29 11:26:55;;;;;;;0.10;0.10;;;;;;;21.69;100.00;98820.84;7397640;19;20014;-92
2022/09/29 11:29:27;;;;;;;0.10;0.00;;;;;;;22.28;100.00;98813.22;7397020;19;20023;-91
2022/09/29 11:32:07;;;;;;;0.65;0.55;;;;;;;22.49;100.00;98809.97;7396520;19;20379;-92
2022/09/29 11:34:42;;;;;;;0.10;0.10;;;;;;;22.23;100.00;98813.44;7398176;19;20006;-92
2022/09/29 11:37:42;;;;;;;0.20;0.10;;;;;;;22.70;100.00;98813.16;7396674;19;20023;-93
2022/09/29 11:40:10;;;;;;;0.33;0.10;;;;;;;22.15;100.00;98816.34;7397274;19;20014;-95
2022/09/29 11:43:00;;;;;;;1.00;0.10;;;;;;;22.01;100.00;98823.66;7397868;19;20010;-96
2022/09/29 11:45:42;;;;;;;0.75;0.43;;;;;;;21.65;100.00;98837.50;7401639;19;20331;-94